Time;durP1;ratioP1;P1;durP2;ratioP2;P2;SDS_P1;SDS_P2;PMS_P1;PMS_P2;Temp;Humidity;BMP_temperature;BMP_pressure;BME280_temperature;BME280_humidity;BME280_pressure;Samples;Min_cycle;Max_cycle;Signal;HPM_P1;HPM_P2
2022/03/05 00:02:18;;;;;;;;;;;16.10;37.50;;;;;;5105571;27;43133;-75
2022/03/05 00:04:43;;;;;;;;;;;16.10;37.50;;;;;;5105119;27;43679;-75
2022/03/05 00:07:09;;;;;;;;;;;16.10;37.50;;;;;;5105462;27;42813;-75
2022/03/05 00:09:34;;;;;;;;;;;16.10;37.50;;;;;;5105864;27;42818;-75
2022/03/05 00:12:00;;;;;;;;;;;16.10;37.60;;;;;;5106064;27;43088;-75
2022/03/05 00:14:25;;;;;;;;;;;16.00;37.00;;;;;;5105652;27;44076;-75
2022/03/05 00:16:51;;;;;;;;;;;16.10;37.50;;;;;;5105536;27;43006;-75
2022/03/05 00:19:18;;;;;;;;;;;16.10;37.40;;;;;;5105483;27;43045;-75
2022/03/05 00:21:43;;;;;;;;;;;16.10;37.40;;;;;;5105484;27;42905;-75
2022/03/05 00:24:09;;;;;;;;;;;16.10;37.60;;;;;;5107063;27;43589;-75
2022/03/05 00:26:34;;;;;;;;;;;16.10;37.40;;;;;;5108566;27;42912;-76
2022/03/05 00:29:00;;;;;;;;;;;16.10;37.40;;;;;;5108483;27;42928;-76
2022/03/05 00:31:25;;;;;;;;;;;16.10;37.40;;;;;;5109068;27;42971;-75
2022/03/05 00:33:51;;;;;;;;;;;16.10;37.40;;;;;;5109076;27;42896;-75
2022/03/05 00:36:17;;;;;;;;;;;16.10;37.50;;;;;;5108755;27;42827;-74
2022/03/05 00:38:42;;;;;;;;;;;16.10;37.40;;;;;;5108855;27;43984;-75
2022/03/05 00:41:08;;;;;;;;;;;16.10;37.50;;;;;;5109000;27;43404;-75
2022/03/05 00:43:34;;;;;;;;;;;16.10;37.60;;;;;;5108427;27;42908;-75
2022/03/05 00:46:00;;;;;;;;;;;16.10;37.50;;;;;;5108669;27;42877;-75
2022/03/05 00:48:26;;;;;;;;;;;16.10;37.50;;;;;;5108128;27;43765;-76
2022/03/05 00:50:51;;;;;;;;;;;16.10;37.60;;;;;;5107019;27;43022;-75
2022/03/05 00:53:18;;;;;;;;;;;16.10;37.50;;;;;;5108649;27;43640;-75
2022/03/05 00:55:44;;;;;;;;;;;16.10;37.30;;;;;;5108742;27;42965;-75
2022/03/05 00:58:09;;;;;;;;;;;16.10;37.40;;;;;;5108848;27;43422;-76
2022/03/05 01:00:35;;;;;;;;;;;16.10;37.40;;;;;;5108760;27;42940;-76
2022/03/05 01:03:00;;;;;;;;;;;16.10;37.40;;;;;;5108335;27;42871;-75
2022/03/05 01:05:26;;;;;;;;;;;16.20;37.50;;;;;;5109028;27;42960;-75
2022/03/05 01:07:51;;;;;;;;;;;17.40;38.10;;;;;;5108752;27;43332;-75
2022/03/05 01:10:17;;;;;;;;;;;16.10;37.40;;;;;;5108070;27;42750;-76
2022/03/05 01:12:42;;;;;;;;;;;16.10;37.50;;;;;;5108014;27;42987;-75
2022/03/05 01:15:08;;;;;;;;;;;16.10;37.50;;;;;;5108566;27;42798;-76
2022/03/05 01:17:34;;;;;;;;;;;16.10;37.50;;;;;;5108073;27;42896;-75
2022/03/05 01:19:59;;;;;;;;;;;16.10;37.50;;;;;;5108203;27;42823;-75
2022/03/05 01:22:25;;;;;;;;;;;16.10;37.50;;;;;;5108122;27;42920;-75
2022/03/05 01:24:50;;;;;;;;;;;16.10;37.50;;;;;;5108422;27;42964;-75
2022/03/05 01:27:16;;;;;;;;;;;16.20;37.70;;;;;;5107942;27;43488;-75
2022/03/05 01:29:41;;;;;;;;;;;16.10;37.60;;;;;;5107834;27;42766;-75
2022/03/05 01:32:07;;;;;;;;;;;16.10;37.80;;;;;;5107590;27;43099;-75
2022/03/05 01:34:33;;;;;;;;;;;16.10;37.40;;;;;;5107133;27;42948;-75
2022/03/05 01:36:58;;;;;;;;;;;16.10;37.50;;;;;;5105358;27;42985;-75
2022/03/05 01:39:24;;;;;;;;;;;16.10;37.70;;;;;;5107323;27;42947;-75
2022/03/05 01:41:51;;;;;;;;;;;16.10;37.50;;;;;;5107664;27;43117;-75
2022/03/05 01:44:18;;;;;;;;;;;16.10;37.70;;;;;;5107430;27;42967;-75
2022/03/05 01:46:43;;;;;;;;;;;16.10;37.50;;;;;;5107334;27;43733;-76
2022/03/05 01:49:10;;;;;;;;;;;16.20;37.60;;;;;;5108117;27;42927;-76
2022/03/05 01:51:36;;;;;;;;;;;16.10;37.50;;;;;;5107251;27;43686;-76
2022/03/05 01:54:01;;;;;;;;;;;16.10;37.60;;;;;;5108140;27;42845;-75
2022/03/05 01:56:27;;;;;;;;;;;16.10;37.70;;;;;;5107191;27;43231;-76
2022/03/05 01:58:53;;;;;;;;;;;16.10;37.60;;;;;;5107921;27;42806;-76
2022/03/05 02:01:22;;;;;;;;;;;16.10;37.60;;;;;;5107667;27;43275;-76
2022/03/05 02:03:48;;;;;;;;;;;16.10;37.60;;;;;;5107630;27;42860;-76
2022/03/05 02:06:14;;;;;;;;;;;16.20;37.80;;;;;;5106782;27;43435;-76
2022/03/05 02:08:39;;;;;;;;;;;16.10;37.70;;;;;;5107094;27;42981;-77
2022/03/05 02:11:05;;;;;;;;;;;16.10;37.80;;;;;;5069229;27;43580;-77
2022/03/05 02:13:30;;;;;;;;;;;16.20;37.80;;;;;;5066996;28;42962;-76
2022/03/05 02:15:56;;;;;;;;;;;16.10;37.80;;;;;;5066432;28;42748;-76
2022/03/05 02:18:22;;;;;;;;;;;16.10;37.80;;;;;;5066616;28;42913;-77
2022/03/05 02:20:51;;;;;;;;;;;16.10;37.80;;;;;;5066289;28;43640;-76
2022/03/05 02:23:17;;;;;;;;;;;16.10;37.80;;;;;;5066539;28;42953;-75
2022/03/05 02:25:53;;;;;;;;;;;16.10;38.00;;;;;;5066780;28;42706;-75
2022/03/05 02:28:19;;;;;;;;;;;16.90;38.30;;;;;;5066332;28;43100;-75
2022/03/05 02:30:45;;;;;;;;;;;16.10;38.00;;;;;;5066296;28;42805;-75
2022/03/05 02:33:10;;;;;;;;;;;16.10;38.00;;;;;;5066380;28;43014;-74
2022/03/05 02:35:36;;;;;;;;;;;16.10;38.10;;;;;;5066565;28;42929;-75
2022/03/05 02:38:01;;;;;;;;;;;16.10;38.00;;;;;;5066679;28;42878;-74
2022/03/05 02:40:27;;;;;;;;;;;16.10;38.10;;;;;;5066017;28;42961;-74
2022/03/05 02:42:52;;;;;;;;;;;16.10;38.10;;;;;;5066022;28;42977;-74
2022/03/05 02:45:18;;;;;;;;;;;16.10;37.70;;;;;;5065684;28;42926;-75
2022/03/05 02:47:43;;;;;;;;;;;16.10;38.30;;;;;;5066200;28;42959;-74
2022/03/05 02:50:09;;;;;;;;;;;16.20;38.20;;;;;;5065522;28;42792;-77
2022/03/05 02:52:37;;;;;;;;;;;16.10;38.30;;;;;;5065827;28;42914;-76
2022/03/05 02:55:04;;;;;;;;;;;16.30;38.40;;;;;;5065958;28;43072;-77
2022/03/05 02:57:29;;;;;;;;;;;16.10;38.50;;;;;;5065608;28;43093;-76
2022/03/05 02:59:55;;;;;;;;;;;16.10;38.20;;;;;;5065675;28;43440;-76
2022/03/05 03:02:20;;;;;;;;;;;16.10;38.30;;;;;;5065229;28;42800;-75
2022/03/05 03:04:46;;;;;;;;;;;16.10;38.40;;;;;;5066208;28;43390;-75
2022/03/05 03:07:11;;;;;;;;;;;16.10;38.50;;;;;;5065962;28;42899;-76
2022/03/05 03:09:37;;;;;;;;;;;16.20;38.50;;;;;;5066604;28;43578;-76
2022/03/05 03:12:02;;;;;;;;;;;16.10;37.90;;;;;;5065968;28;42974;-76
2022/03/05 03:14:28;;;;;;;;;;;16.10;38.50;;;;;;5065443;28;43730;-77
2022/03/05 03:16:53;;;;;;;;;;;16.10;38.40;;;;;;5080898;28;42961;-77
2022/03/05 03:19:19;;;;;;;;;;;16.20;38.50;;;;;;5065118;28;43714;-76
2022/03/05 03:21:45;;;;;;;;;;;16.20;38.50;;;;;;5064939;28;43685;-76
2022/03/05 03:24:11;;;;;;;;;;;16.10;38.40;;;;;;5064928;28;42939;-76
2022/03/05 03:26:36;;;;;;;;;;;16.10;38.50;;;;;;5065345;28;42959;-77
2022/03/05 03:29:02;;;;;;;;;;;16.10;38.50;;;;;;5065342;28;43278;-77
2022/03/05 03:31:27;;;;;;;;;;;16.10;38.70;;;;;;5065633;28;43013;-76
2022/03/05 03:33:53;;;;;;;;;;;16.10;38.50;;;;;;5065082;28;42957;-74
2022/03/05 03:36:18;;;;;;;;;;;16.10;38.60;;;;;;5065852;28;42926;-75
2022/03/05 03:38:44;;;;;;;;;;;16.10;38.90;;;;;;5065266;28;43317;-75
2022/03/05 03:41:09;;;;;;;;;;;16.10;38.60;;;;;;5065412;28;42816;-75
2022/03/05 03:43:35;;;;;;;;;;;16.10;38.60;;;;;;5065254;28;43679;-75
2022/03/05 03:46:00;;;;;;;;;;;16.10;38.70;;;;;;5065454;28;42948;-76
2022/03/05 03:48:26;;;;;;;;;;;16.10;38.70;;;;;;5065332;28;42847;-76
2022/03/05 03:50:51;;;;;;;;;;;16.10;38.70;;;;;;5065042;28;43825;-75
2022/03/05 03:53:17;;;;;;;;;;;16.10;38.70;;;;;;5065151;28;42942;-76
2022/03/05 03:55:42;;;;;;;;;;;16.10;38.70;;;;;;5064886;28;42866;-75
2022/03/05 03:58:08;;;;;;;;;;;16.10;38.70;;;;;;5064252;28;43560;-75
2022/03/05 04:00:34;;;;;;;;;;;16.10;38.80;;;;;;5064950;28;42941;-75
2022/03/05 04:02:59;;;;;;;;;;;16.10;38.80;;;;;;5064666;28;42949;-75
2022/03/05 04:05:25;;;;;;;;;;;16.10;39.00;;;;;;5064444;28;42957;-75
2022/03/05 04:10:35;;;;;;;;;;;16.10;38.80;;;;;;5065300;28;42886;-75
2022/03/05 04:13:00;;;;;;;;;;;16.10;38.80;;;;;;5064651;28;43605;-75
2022/03/05 04:15:26;;;;;;;;;;;16.10;38.80;;;;;;5064773;28;42930;-75
2022/03/05 04:17:51;;;;;;;;;;;16.10;38.90;;;;;;5064327;28;42849;-76
2022/03/05 04:20:17;;;;;;;;;;;16.10;39.00;;;;;;5064998;28;42842;-75
2022/03/05 04:22:42;;;;;;;;;;;16.10;38.40;;;;;;5064489;28;44039;-76
2022/03/05 04:25:08;;;;;;;;;;;16.20;38.90;;;;;;5064969;28;42823;-75
2022/03/05 04:27:34;;;;;;;;;;;16.20;38.90;;;;;;5064027;28;43152;-75
2022/03/05 04:30:00;;;;;;;;;;;16.10;38.90;;;;;;5064935;28;42949;-75
2022/03/05 04:32:25;;;;;;;;;;;16.10;39.00;;;;;;5064424;28;42783;-75
2022/03/05 04:34:51;;;;;;;;;;;16.20;39.00;;;;;;5064911;28;42911;-75
2022/03/05 04:37:16;;;;;;;;;;;16.10;39.00;;;;;;5064574;28;43645;-76
2022/03/05 04:39:42;;;;;;;;;;;16.10;39.00;;;;;;5064584;28;43068;-75
2022/03/05 04:42:07;;;;;;;;;;;16.10;39.00;;;;;;5064474;28;43301;-75
2022/03/05 04:44:33;;;;;;;;;;;16.10;39.10;;;;;;5064346;28;42963;-76
2022/03/05 04:46:59;;;;;;;;;;;16.10;39.00;;;;;;5079966;28;44277;-76
2022/03/05 04:49:25;;;;;;;;;;;16.20;39.00;;;;;;5064466;28;42859;-76
2022/03/05 04:51:50;;;;;;;;;;;16.10;39.00;;;;;;5097354;27;42980;-75
2022/03/05 04:54:16;;;;;;;;;;;16.10;39.10;;;;;;5064638;28;43009;-75
2022/03/05 04:56:42;;;;;;;;;;;16.00;38.50;;;;;;5053029;22;43558;-75
2022/03/05 04:59:07;;;;;;;;;;;16.10;39.10;;;;;;5043115;28;43165;-76
2022/03/05 05:01:33;;;;;;;;;;;16.10;39.20;;;;;;5025015;28;44657;-75
2022/03/05 05:03:58;;;;;;;;;;;16.10;39.20;;;;;;5042667;28;42938;-75
2022/03/05 05:06:24;;;;;;;;;;;16.10;39.30;;;;;;5041675;28;44600;-74
2022/03/05 05:08:50;;;;;;;;;;;16.10;39.30;;;;;;5044011;28;43233;-75
2022/03/05 05:11:16;;;;;;;;;;;16.10;39.20;;;;;;5045293;28;42873;-74
2022/03/05 05:13:41;;;;;;;;;;;16.10;39.30;;;;;;5046340;28;42931;-74
2022/03/05 05:16:07;;;;;;;;;;;16.10;39.40;;;;;;5044964;28;42940;-75
2022/03/05 05:18:35;;;;;;;;;;;16.10;39.40;;;;;;5046335;28;43042;-75
2022/03/05 05:21:01;;;;;;;;;;;16.10;39.30;;;;;;5045670;28;42839;-75
2022/03/05 05:23:26;;;;;;;;;;;16.10;39.40;;;;;;5045636;28;43213;-75
2022/03/05 05:25:52;;;;;;;;;;;16.10;39.20;;;;;;5046497;28;42936;-74
2022/03/05 05:28:17;;;;;;;;;;;16.10;39.50;;;;;;5045383;28;43023;-75
2022/03/05 05:30:43;;;;;;;;;;;16.10;39.30;;;;;;5044194;28;43143;-74
2022/03/05 05:33:09;;;;;;;;;;;16.10;39.40;;;;;;5046308;28;42960;-74
2022/03/05 05:35:34;;;;;;;;;;;15.70;35.50;;;;;;5045331;28;42772;-74
2022/03/05 05:38:00;;;;;;;;;;;15.30;34.10;;;;;;5046219;28;42939;-74
2022/03/05 05:40:26;;;;;;;;;;;15.00;33.30;;;;;;5044616;28;42906;-74
2022/03/05 05:42:51;;;;;;;;;;;15.00;34.00;;;;;;5046120;28;42824;-75
2022/03/05 05:45:17;;;;;;;;;;;14.80;32.70;;;;;;5042746;28;44568;-76
2022/03/05 05:47:42;;;;;;;;;;;14.60;31.90;;;;;;5045729;28;42925;-75
2022/03/05 05:50:08;;;;;;;;;;;14.70;32.40;;;;;;5043909;28;43096;-74
2022/03/05 05:52:34;;;;;;;;;;;14.30;32.30;;;;;;5045686;28;43192;-75
2022/03/05 05:54:59;;;;;;;;;;;13.90;32.30;;;;;;5045371;28;43557;-75
2022/03/05 05:57:25;;;;;;;;;;;13.80;32.40;;;;;;5044150;28;43425;-74
2022/03/05 05:59:50;;;;;;;;;;;13.60;32.40;;;;;;5045171;28;43697;-75
2022/03/05 06:02:16;;;;;;;;;;;13.40;31.90;;;;;;5045415;28;43268;-75
2022/03/05 06:04:42;;;;;;;;;;;13.50;32.60;;;;;;5045054;28;42975;-76
2022/03/05 06:07:07;;;;;;;;;;;13.70;32.40;;;;;;5046219;28;42975;-75
2022/03/05 06:09:33;;;;;;;;;;;14.10;32.20;;;;;;5045504;28;43611;-76
2022/03/05 06:11:58;;;;;;;;;;;14.30;32.20;;;;;;5045286;28;42995;-76
2022/03/05 06:14:24;;;;;;;;;;;14.40;32.00;;;;;;5045028;28;42997;-75
2022/03/05 06:16:50;;;;;;;;;;;14.40;32.20;;;;;;5046651;28;42920;-75
2022/03/05 06:19:15;;;;;;;;;;;14.30;31.60;;;;;;5044405;28;42844;-74
2022/03/05 06:21:41;;;;;;;;;;;14.50;32.30;;;;;;5046148;28;42962;-75
2022/03/05 06:24:09;;;;;;;;;;;14.50;32.10;;;;;;5046219;28;43695;-76
2022/03/05 06:26:35;;;;;;;;;;;14.50;32.00;;;;;;5045019;28;43053;-75
2022/03/05 06:29:01;;;;;;;;;;;14.50;31.90;;;;;;5046641;28;43514;-75
2022/03/05 06:31:26;;;;;;;;;;;14.50;31.90;;;;;;5048028;28;42939;-76
2022/03/05 06:33:52;;;;;;;;;;;14.50;31.80;;;;;;5045616;28;43504;-75
2022/03/05 06:36:17;;;;;;;;;;;14.60;32.10;;;;;;5045896;28;43016;-75
2022/03/05 06:38:43;;;;;;;;;;;14.50;31.80;;;;;;5045222;28;43382;-76
2022/03/05 06:41:08;;;;;;;;;;;14.50;31.70;;;;;;5045073;28;42938;-75
2022/03/05 06:43:34;;;;;;;;;;;14.50;31.70;;;;;;5043961;28;43525;-75
2022/03/05 06:45:59;;;;;;;;;;;14.50;31.70;;;;;;5045228;28;43121;-74
2022/03/05 06:48:25;;;;;;;;;;;14.50;31.10;;;;;;5044906;28;43644;-74
2022/03/05 06:50:50;;;;;;;;;;;14.50;31.60;;;;;;5044429;28;43089;-75
2022/03/05 06:53:16;;;;;;;;;;;14.50;31.90;;;;;;5043589;28;43692;-74
2022/03/05 06:55:42;;;;;;;;;;;14.50;31.50;;;;;;5043165;28;43017;-74
2022/03/05 06:58:08;;;;;;;;;;;14.50;30.90;;;;;;5044101;28;43480;-75
2022/03/05 07:00:34;;;;;;;;;;;14.50;31.30;;;;;;5044285;28;43002;-74
2022/03/05 07:02:59;;;;;;;;;;;14.40;31.60;;;;;;5043138;28;43247;-75
2022/03/05 07:05:25;;;;;;;;;;;14.60;31.50;;;;;;5044814;28;42876;-74
2022/03/05 07:07:50;;;;;;;;;;;14.60;31.60;;;;;;5044889;28;42963;-74
2022/03/05 07:10:16;;;;;;;;;;;14.60;31.80;;;;;;5043692;28;42958;-74
2022/03/05 07:12:42;;;;;;;;;;;14.70;31.70;;;;;;5043892;28;43704;-74
2022/03/05 07:15:07;;;;;;;;;;;14.80;32.10;;;;;;5045643;28;42990;-74
2022/03/05 07:17:33;;;;;;;;;;;14.90;32.60;;;;;;5045485;28;43278;-74
2022/03/05 07:19:59;;;;;;;;;;;15.00;33.30;;;;;;5045705;28;42867;-74
2022/03/05 07:22:24;;;;;;;;;;;15.20;33.90;;;;;;5045521;28;42725;-74
2022/03/05 07:24:50;;;;;;;;;;;15.20;33.70;;;;;;5045717;28;42831;-74
2022/03/05 07:27:16;;;;;;;;;;;15.30;34.30;;;;;;5044761;28;42943;-74
2022/03/05 07:29:43;;;;;;;;;;;15.40;34.70;;;;;;5043648;28;43013;-75
2022/03/05 07:32:09;;;;;;;;;;;15.40;34.60;;;;;;5045111;28;43701;-74
2022/03/05 07:34:35;;;;;;;;;;;15.40;34.70;;;;;;5044391;28;42761;-75
2022/03/05 07:37:00;;;;;;;;;;;15.50;35.10;;;;;;5045392;28;42969;-74
2022/03/05 07:39:26;;;;;;;;;;;15.50;34.90;;;;;;5044883;28;42920;-74
2022/03/05 07:41:51;;;;;;;;;;;15.50;35.00;;;;;;5044533;28;43472;-75
2022/03/05 07:44:17;;;;;;;;;;;15.50;34.50;;;;;;5044947;28;42947;-75
2022/03/05 07:46:42;;;;;;;;;;;15.50;35.30;;;;;;5045574;28;42975;-75
2022/03/05 07:49:08;;;;;;;;;;;15.60;35.40;;;;;;5045116;28;43213;-75
2022/03/05 07:51:34;;;;;;;;;;;15.60;36.20;;;;;;5045135;28;43585;-75
2022/03/05 07:54:01;;;;;;;;;;;15.60;35.90;;;;;;5044091;28;59666;-74
2022/03/05 07:56:27;;;;;;;;;;;15.60;36.10;;;;;;5044896;28;42860;-75
2022/03/05 07:58:52;;;;;;;;;;;15.70;36.20;;;;;;5045089;28;42843;-75
2022/03/05 08:01:18;;;;;;;;;;;15.70;36.40;;;;;;5044817;28;43441;-74
2022/03/05 08:03:43;;;;;;;;;;;15.70;36.50;;;;;;5043127;28;42889;-74
2022/03/05 08:06:09;;;;;;;;;;;15.70;36.70;;;;;;5043979;28;42976;-74
2022/03/05 08:08:34;;;;;;;;;;;15.70;36.80;;;;;;5044595;28;42944;-75
2022/03/05 08:11:00;;;;;;;;;;;15.70;36.80;;;;;;5044813;28;42915;-74
2022/03/05 08:13:28;;;;;;;;;;;15.70;37.00;;;;;;5044598;28;42926;-74
2022/03/05 08:15:53;;;;;;;;;;;15.80;37.10;;;;;;5044597;28;43384;-74
2022/03/05 08:18:20;;;;;;;;;;;15.80;37.20;;;;;;5044826;28;42941;-74
2022/03/05 08:20:46;;;;;;;;;;;15.70;37.10;;;;;;5044750;28;42831;-73
2022/03/05 08:23:11;;;;;;;;;;;15.80;37.20;;;;;;5044708;28;42941;-73
2022/03/05 08:25:37;;;;;;;;;;;15.80;37.30;;;;;;5044812;28;43013;-73
2022/03/05 08:28:03;;;;;;;;;;;15.80;37.40;;;;;;5044247;28;42941;-74
2022/03/05 08:30:28;;;;;;;;;;;15.80;37.40;;;;;;5044317;28;43361;-74
2022/03/05 08:32:54;;;;;;;;;;;15.80;37.60;;;;;;5044406;28;42847;-74
2022/03/05 08:35:21;;;;;;;;;;;15.80;36.80;;;;;;5044238;28;43858;-73
2022/03/05 08:37:46;;;;;;;;;;;15.80;37.60;;;;;;5059207;28;42973;-74
2022/03/05 08:40:12;;;;;;;;;;;15.80;37.30;;;;;;5043145;28;43053;-74
2022/03/05 08:42:38;;;;;;;;;;;15.90;37.50;;;;;;5044282;28;42891;-73
2022/03/05 08:45:05;;;;;;;;;;;15.80;37.40;;;;;;5045487;28;43612;-74
2022/03/05 08:47:31;;;;;;;;;;;15.90;37.40;;;;;;5047276;28;42971;-73
2022/03/05 08:49:56;;;;;;;;;;;15.80;36.90;;;;;;5046078;28;44382;-75
2022/03/05 08:52:22;;;;;;;;;;;15.90;37.40;;;;;;5047583;28;42879;-73
2022/03/05 08:54:47;;;;;;;;;;;15.80;37.00;;;;;;5047959;28;42921;-73
2022/03/05 08:57:13;;;;;;;;;;;15.90;37.70;;;;;;5047822;28;43160;-75
2022/03/05 08:59:39;;;;;;;;;;;15.90;37.70;;;;;;5047381;28;43897;-74
2022/03/05 09:02:05;;;;;;;;;;;15.80;36.90;;;;;;5047370;28;42772;-75
2022/03/05 09:04:31;;;;;;;;;;;15.90;37.50;;;;;;5046825;28;43783;-75
2022/03/05 09:06:56;;;;;;;;;;;15.90;37.50;;;;;;5047583;28;43031;-75
2022/03/05 09:09:22;;;;;;;;;;;15.80;36.90;;;;;;5047554;28;43097;-73
2022/03/05 09:11:47;;;;;;;;;;;15.90;37.40;;;;;;5047712;28;42924;-76
2022/03/05 09:14:13;;;;;;;;;;;15.90;37.50;;;;;;5048363;28;43938;-76
2022/03/05 09:16:39;;;;;;;;;;;15.90;37.50;;;;;;5049837;28;42966;-75
2022/03/05 09:19:04;;;;;;;;;;;15.90;36.90;;;;;;5046424;28;43185;-75
2022/03/05 09:21:30;;;;;;;;;;;15.90;37.40;;;;;;5047811;28;43614;-75
2022/03/05 09:23:56;;;;;;;;;;;15.90;37.30;;;;;;5047331;28;43521;-75
2022/03/05 09:26:21;;;;;;;;;;;15.90;37.30;;;;;;5046723;28;43062;-74
2022/03/05 09:28:47;;;;;;;;;;;15.90;37.30;;;;;;5045366;28;43571;-74
2022/03/05 09:31:13;;;;;;;;;;;15.90;37.30;;;;;;5046014;28;43022;-74
2022/03/05 09:33:38;;;;;;;;;;;15.90;36.80;;;;;;5046630;28;43022;-75
2022/03/05 09:36:04;;;;;;;;;;;15.90;37.20;;;;;;5047104;28;42930;-75
2022/03/05 09:38:29;;;;;;;;;;;16.00;37.30;;;;;;5046554;28;43498;-75
2022/03/05 09:40:55;;;;;;;;;;;16.00;37.20;;;;;;5047240;28;42979;-75
2022/03/05 09:43:21;;;;;;;;;;;16.00;37.20;;;;;;5046704;28;42836;-75
2022/03/05 09:45:47;;;;;;;;;;;16.00;37.20;;;;;;5045490;28;42851;-75
2022/03/05 09:48:15;;;;;;;;;;;15.90;37.20;;;;;;5045487;28;44609;-75
2022/03/05 09:50:40;;;;;;;;;;;16.00;37.20;;;;;;5046999;28;42946;-75
2022/03/05 09:53:06;;;;;;;;;;;15.90;37.40;;;;;;5045887;28;43879;-75
2022/03/05 09:55:31;;;;;;;;;;;16.00;37.30;;;;;;5045368;28;42979;-75
2022/03/05 09:57:57;;;;;;;;;;;16.00;37.40;;;;;;5045528;28;43828;-74
2022/03/05 10:00:23;;;;;;;;;;;16.00;37.30;;;;;;5046269;28;42906;-75
2022/03/05 10:02:48;;;;;;;;;;;16.00;37.30;;;;;;5046360;28;42977;-75
2022/03/05 10:05:18;;;;;;;;;;;16.00;37.30;;;;;;5046064;28;43063;-75
2022/03/05 10:08:08;;;;;;;;;;;16.00;37.10;;;;;;5044638;28;43577;-75
2022/03/05 10:10:42;;;;;;;;;;;16.00;37.10;;;;;;5046146;28;42963;-74
2022/03/05 10:13:28;;;;;;;;;;;16.00;37.20;;;;;;5045652;28;43436;-74
2022/03/05 10:15:58;;;;;;;;;;;16.00;36.70;;;;;;5046042;28;42998;-75
2022/03/05 10:18:29;;;;;;;;;;;16.00;37.10;;;;;;5046330;28;43689;-75
2022/03/05 10:20:54;;;;;;;;;;;16.00;37.10;;;;;;5046604;28;42974;-74
2022/03/05 10:23:20;;;;;;;;;;;16.10;37.50;;;;;;5046167;28;43504;-74
2022/03/05 10:25:50;;;;;;;;;;;16.00;37.10;;;;;;5046412;28;42935;-74
2022/03/05 10:28:19;;;;;;;;;;;16.10;37.00;;;;;;5045404;28;42935;-74
2022/03/05 10:30:45;;;;;;;;;;;16.00;36.40;;;;;;5046058;28;42958;-74
2022/03/05 10:33:29;;;;;;;;;;;16.10;37.10;;;;;;5045847;28;42924;-74
2022/03/05 10:35:56;;;;;;;;;;;16.10;37.00;;;;;;5046058;28;42851;-74
2022/03/05 10:38:22;;;;;;;;;;;16.10;37.00;;;;;;5045937;28;42929;-74
2022/03/05 10:40:57;;;;;;;;;;;16.10;36.90;;;;;;5045935;28;42946;-75
2022/03/05 10:43:23;;;;;;;;;;;16.10;36.90;;;;;;5045322;28;42939;-75
2022/03/05 10:45:50;;;;;;;;;;;16.10;37.00;;;;;;5045855;28;42912;-75
2022/03/05 10:48:20;;;;;;;;;;;16.00;36.90;;;;;;5045647;28;42889;-74
2022/03/05 10:50:45;;;;;;;;;;;16.10;36.90;;;;;;5046043;28;42966;-74
2022/03/05 10:53:11;;;;;;;;;;;16.10;36.90;;;;;;5045769;28;42923;-74
2022/03/05 10:55:37;;;;;;;;;;;16.10;36.90;;;;;;5045897;28;42837;-74
2022/03/05 10:58:13;;;;;;;;;;;16.00;36.40;;;;;;5045593;28;43093;-75
2022/03/05 11:00:39;;;;;;;;;;;16.10;36.90;;;;;;5045999;28;43098;-74
2022/03/05 11:03:05;;;;;;;;;;;16.10;37.00;;;;;;5045820;28;43083;-74
2022/03/05 11:05:31;;;;;;;;;;;16.10;37.10;;;;;;5045295;28;42994;-74
2022/03/05 11:07:57;;;;;;;;;;;16.10;37.00;;;;;;5043845;28;43810;-74
2022/03/05 11:10:25;;;;;;;;;;;16.10;37.20;;;;;;5044999;28;42923;-75
2022/03/05 11:12:56;;;;;;;;;;;16.10;37.10;;;;;;5042794;28;43664;-74
2022/03/05 11:15:22;;;;;;;;;;;16.10;36.50;;;;;;5045300;28;43009;-74
2022/03/05 11:17:47;;;;;;;;;;;16.10;37.00;;;;;;5045701;28;42958;-74
2022/03/05 11:20:14;;;;;;;;;;;16.10;37.00;;;;;;5045655;28;42868;-75
2022/03/05 11:22:41;;;;;;;;;;;16.10;37.10;;;;;;5038918;28;43479;-74
2022/03/05 11:25:10;;;;;;;;;;;16.10;37.10;;;;;;5040264;28;43227;-74
2022/03/05 11:27:36;;;;;;;;;;;16.10;37.10;;;;;;5044180;28;43191;-74
2022/03/05 11:30:06;;;;;;;;;;;16.10;37.20;;;;;;5044843;28;43047;-76
2022/03/05 11:32:34;;;;;;;;;;;16.10;37.20;;;;;;5043503;28;42963;-76
2022/03/05 11:34:59;;;;;;;;;;;16.10;37.20;;;;;;5030239;28;42930;-75
2022/03/05 11:37:31;;;;;;;;;;;16.10;37.10;;;;;;5041958;28;43256;-77
2022/03/05 11:39:58;;;;;;;;;;;16.10;37.00;;;;;;5039196;28;42863;-76
2022/03/05 11:42:27;;;;;;;;;;;16.10;37.10;;;;;;5044566;28;43485;-76
2022/03/05 11:44:52;;;;;;;;;;;16.00;36.60;;;;;;5062670;28;43045;-77
2022/03/05 11:47:18;;;;;;;;;;;16.10;37.20;;;;;;5044521;28;43072;-75
2022/03/05 11:49:58;;;;;;;;;;;16.10;37.10;;;;;;5044815;28;42896;-75
2022/03/05 11:52:39;;;;;;;;;;;16.10;37.10;;;;;;5043756;28;42823;-75
2022/03/05 11:55:10;;;;;;;;;;;16.10;37.00;;;;;;5040714;28;43064;-76
2022/03/05 11:57:37;;;;;;;;;;;16.10;37.00;;;;;;5024465;28;43430;-75
2022/03/05 12:00:03;;;;;;;;;;;16.10;37.00;;;;;;5030572;28;43109;-76
2022/03/05 12:02:41;;;;;;;;;;;16.10;37.20;;;;;;5047234;28;42963;-75
2022/03/05 12:05:06;;;;;;;;;;;16.10;37.10;;;;;;5044186;28;43128;-76
2022/03/05 12:07:41;;;;;;;;;;;16.10;36.70;;;;;;5044765;28;43440;-75
2022/03/05 12:10:13;;;;;;;;;;;16.10;37.10;;;;;;5039768;28;43461;-76
2022/03/05 12:13:01;;;;;;;;;;;16.10;37.00;;;;;;5041351;28;42995;-76
2022/03/05 12:15:27;;;;;;;;;;;16.10;36.50;;;;;;5050731;28;42930;-75
2022/03/05 12:17:52;;;;;;;;;;;15.80;31.90;;;;;;5041781;28;43616;-76
2022/03/05 12:20:24;;;;;;;;;;;15.60;29.30;;;;;;5045730;28;42916;-75
2022/03/05 12:22:52;;;;;;;;;;;15.10;29.20;;;;;;5045955;28;43686;-76
2022/03/05 12:25:18;;;;;;;;;;;15.10;29.50;;;;;;5042780;28;43138;-75
2022/03/05 12:27:50;;;;;;;;;;;15.00;29.20;;;;;;5046558;28;42982;-75
2022/03/05 12:30:16;;;;;;;;;;;14.80;29.40;;;;;;5046561;28;42989;-76
2022/03/05 12:32:45;;;;;;;;;;;15.00;29.40;;;;;;5046720;28;42941;-76
2022/03/05 12:35:10;;;;;;;;;;;15.10;29.40;;;;;;5045892;28;42923;-76
2022/03/05 12:37:36;;;;;;;;;;;15.10;29.00;;;;;;5046641;28;43625;-76
2022/03/05 12:40:03;;;;;;;;;;;15.30;29.20;;;;;;5046260;28;43175;-76
2022/03/05 12:42:42;;;;;;;;;;;15.20;29.00;;;;;;5046917;28;43725;-76
2022/03/05 12:45:13;;;;;;;;;;;15.20;28.90;;;;;;5045358;28;43057;-76
2022/03/05 12:47:38;;;;;;;;;;;15.30;29.00;;;;;;5043460;28;43632;-76
2022/03/05 12:50:23;;;;;;;;;;;15.30;29.20;;;;;;5046971;28;42970;-75
2022/03/05 12:53:07;;;;;;;;;;;15.20;29.00;;;;;;5044294;28;43595;-76
2022/03/05 12:55:38;;;;;;;;;;;15.20;29.00;;;;;;5045742;28;43113;-77
2022/03/05 12:58:08;;;;;;;;;;;15.20;28.50;;;;;;5036183;28;43578;-76
2022/03/05 13:00:34;;;;;;;;;;;15.20;28.60;;;;;;5045417;28;43057;-75
2022/03/05 13:02:59;;;;;;;;;;;14.90;28.80;;;;;;5045742;28;43199;-76
2022/03/05 13:05:26;;;;;;;;;;;15.00;29.00;;;;;;5045317;28;43038;-76
2022/03/05 13:07:52;;;;;;;;;;;14.90;28.50;;;;;;5045081;28;42994;-75
2022/03/05 13:10:18;;;;;;;;;;;15.00;29.10;;;;;;5043967;28;43100;-76
2022/03/05 13:12:44;;;;;;;;;;;15.10;29.00;;;;;;5046937;28;43149;-76
2022/03/05 13:15:21;;;;;;;;;;;15.00;28.40;;;;;;5043475;28;42939;-75
2022/03/05 13:17:46;;;;;;;;;;;15.10;28.90;;;;;;5044717;28;43595;-76
2022/03/05 13:20:14;;;;;;;;;;;15.30;29.10;;;;;;5044998;28;43217;-76
2022/03/05 13:22:40;;;;;;;;;;;15.30;29.60;;;;;;5044025;28;43100;-76
2022/03/05 13:25:09;;;;;;;;;;;16.30;30.30;;;;;;5053391;28;43110;-76
2022/03/05 13:27:35;;;;;;;;;;;15.50;30.00;;;;;;5054085;28;43833;-75
2022/03/05 13:30:10;;;;;;;;;;;15.60;30.50;;;;;;5048309;28;43243;-76
2022/03/05 13:32:44;;;;;;;;;;;15.60;30.40;;;;;;5046283;28;43683;-75
2022/03/05 13:35:10;;;;;;;;;;;15.70;30.80;;;;;;5051402;28;43313;-76
2022/03/05 13:37:40;;;;;;;;;;;15.70;30.90;;;;;;5053800;28;43438;-76
2022/03/05 13:40:07;;;;;;;;;;;15.70;31.00;;;;;;5052611;28;42957;-76
2022/03/05 13:42:34;;;;;;;;;;;15.70;31.10;;;;;;5053543;28;43076;-76
2022/03/05 13:45:01;;;;;;;;;;;15.80;31.30;;;;;;5054143;28;42983;-75
2022/03/05 13:47:27;;;;;;;;;;;15.80;31.30;;;;;;5052387;28;43816;-77
2022/03/05 13:49:58;;;;;;;;;;;15.80;31.60;;;;;;5052832;28;43021;-76
2022/03/05 13:52:25;;;;;;;;;;;15.80;31.60;;;;;;5055558;28;43557;-76
2022/03/05 13:54:51;;;;;;;;;;;15.80;32.20;;;;;;5056138;28;42937;-75
2022/03/05 13:57:30;;;;;;;;;;;15.80;31.80;;;;;;5052478;28;43610;-76
2022/03/05 14:00:05;;;;;;;;;;;15.80;31.80;;;;;;5050784;28;43180;-76
2022/03/05 14:02:31;;;;;;;;;;;15.90;32.10;;;;;;5052233;28;43597;-76
2022/03/05 14:05:02;;;;;;;;;;;15.80;32.10;;;;;;5054909;28;43002;-76
2022/03/05 14:07:28;;;;;;;;;;;15.80;32.00;;;;;;5049600;28;43056;-76
2022/03/05 14:09:58;;;;;;;;;;;15.90;32.20;;;;;;5053333;28;43165;-76
2022/03/05 14:12:24;;;;;;;;;;;15.90;31.80;;;;;;5051203;28;44314;-76
2022/03/05 14:14:50;;;;;;;;;;;15.80;32.30;;;;;;5051449;28;43089;-77
2022/03/05 14:17:26;;;;;;;;;;;15.80;31.80;;;;;;5053288;28;43287;-76